Accueil
METAR-TAF:

METAR-TAF

Aéroports :

Wiener Neustadt, Autriche

latitude: 47-50-36N, longitude: 016-15-29E, altitude: 272 m

Observation

Le bulletin a été fait il y a 4 heures et 8 minutes, à 19:00 UTC
Vent 9 kt de ouest/sud-ouest
Température
Pression

METAR: LOAN 031900Z 24009KT 25KM FEW020CU SCT030SC BKN050SC

Heure: 01:08 (23:08 UTC)

Prévision

Le bulletin a été fait il y a 11 heures et 43 minutes, à 11:25 UTC
Prévision valable du 03 à 12 UTC au 03 à 21 UTC
Vent 8 kt de sud-est
Visibilité 10 km ou plus
Nuages épars à une hauteur de 4000 ft
Probabilité 40% :
Temporairement
du 03 à 13 UTC au 03 à 20 UTC
Vent 15 kt de direction variable avec des rafales jusqu'à 25 kt
Nuages fragmentés à une hauteur de 4000 ft
Quelques nuages à une hauteur de 5000 ft, Cumulonimbus.
orage, pluie

TAF: LOAN 031125Z 0312/0321 13008KT 9999 SCT040 PROB40 TEMPO 0313/0320 VRB15G25KT TSRA BKN040 FEW050CB

Observations et prévisions météorologiques de plus de 4000 aéroports (messages METAR et TAF).

Les stations disponibles sont représentées par des disques jaunes et rouges sur la carte.

Passer la souris dessus pour voir le nom de la station.

Cliquer dessus pour voir les observations et prévisions météorologiques.

Pour changer de carte: cliquez sur les boutons verts avec une croix noire pour zoomer, sur le bouton vert avec un tiret pour effectuer un zoom arrière, ou sur les flèches vertes pour les cartes adjacentes.


METAR-TAF: